createdAt,value
2022-11-27T00:01:00.142Z,80.19
2022-11-27T00:03:28.180Z,80.34
2022-11-27T00:05:55.986Z,80.35
2022-11-27T00:08:23.668Z,80.39
2022-11-27T00:10:51.298Z,80.25
2022-11-27T00:13:19.424Z,80.03
2022-11-27T00:15:48.029Z,80.54
2022-11-27T00:18:15.973Z,80.06
2022-11-27T00:20:43.665Z,80.02
2022-11-27T00:23:11.341Z,79.69
2022-11-27T00:25:39.330Z,80.15
2022-11-27T00:28:07.056Z,80.38
2022-11-27T00:30:34.795Z,80.30
2022-11-27T00:33:02.486Z,79.90
2022-11-27T00:35:30.185Z,80.27
2022-11-27T00:37:58.217Z,80.14
2022-11-27T00:40:29.251Z,80.40
2022-11-27T00:42:56.940Z,80.54
2022-11-27T00:45:24.613Z,80.52
2022-11-27T00:47:52.337Z,80.70
2022-11-27T00:50:20.050Z,80.67
2022-11-27T00:52:49.205Z,80.79
2022-11-27T00:55:16.916Z,80.45
2022-11-27T00:57:44.691Z,81.01
2022-11-27T01:00:12.405Z,80.31
2022-11-27T01:02:40.316Z,80.56
2022-11-27T01:05:08.150Z,80.56
2022-11-27T01:07:35.896Z,80.29
2022-11-27T01:10:03.620Z,80.87
2022-11-27T01:12:31.326Z,80.38
2022-11-27T01:14:58.941Z,80.20
2022-11-27T01:17:26.601Z,80.25
2022-11-27T01:19:54.352Z,80.53
2022-11-27T01:22:21.978Z,80.42
2022-11-27T01:24:49.592Z,80.65
2022-11-27T01:27:17.642Z,80.51
2022-11-27T01:29:45.992Z,80.90
2022-11-27T01:32:13.643Z,81.11
2022-11-27T01:34:41.545Z,80.96
2022-11-27T01:37:09.450Z,80.92
2022-11-27T01:39:37.411Z,80.59
2022-11-27T01:42:05.056Z,81.63
2022-11-27T01:44:32.688Z,81.10
2022-11-27T01:47:00.693Z,81.38
2022-11-27T01:49:28.410Z,80.69
2022-11-27T01:51:56.407Z,80.46
2022-11-27T01:54:25.374Z,80.53
2022-11-27T01:56:53.004Z,80.75
2022-11-27T01:59:20.582Z,80.66
2022-11-27T02:01:48.269Z,80.56
2022-11-27T02:04:16.135Z,81.18
2022-11-27T02:06:43.747Z,81.05
2022-11-27T02:09:11.706Z,80.98
2022-11-27T02:11:39.380Z,81.13
2022-11-27T02:14:06.939Z,81.12
2022-11-27T02:16:34.908Z,81.01
2022-11-27T02:19:03.822Z,81.21
2022-11-27T02:21:31.421Z,80.74
2022-11-27T02:23:59.007Z,80.83
2022-11-27T02:26:26.754Z,80.35
2022-11-27T02:28:54.760Z,80.52
2022-11-27T02:31:25.618Z,80.49
2022-11-27T02:33:53.345Z,80.10
2022-11-27T02:36:20.915Z,80.21
2022-11-27T02:38:48.528Z,80.08
2022-11-27T02:41:16.552Z,80.26
2022-11-27T02:43:44.321Z,80.78
2022-11-27T02:46:11.992Z,80.54
2022-11-27T02:48:39.669Z,80.35
2022-11-27T02:51:07.267Z,79.98
2022-11-27T02:53:35.904Z,80.19
2022-11-27T02:56:04.294Z,79.88
2022-11-27T02:58:31.894Z,80.44
2022-11-27T03:00:59.475Z,80.69
2022-11-27T03:03:27.120Z,79.84
2022-11-27T03:05:55.072Z,80.17
2022-11-27T03:08:22.677Z,80.37
2022-11-27T03:10:50.270Z,80.79
2022-11-27T03:13:17.832Z,80.04
2022-11-27T03:15:45.865Z,80.08
2022-11-27T03:18:14.117Z,80.44
2022-11-27T03:20:41.671Z,79.63
2022-11-27T03:23:09.227Z,80.30
2022-11-27T03:25:36.836Z,79.48
2022-11-27T03:28:04.382Z,79.80
2022-11-27T03:30:32.291Z,79.94
2022-11-27T03:32:59.906Z,79.69
2022-11-27T03:35:27.470Z,79.39
2022-11-27T03:37:55.409Z,79.27
2022-11-27T03:40:23.113Z,78.84
2022-11-27T03:42:51.144Z,78.93
2022-11-27T03:45:20.767Z,78.51
2022-11-27T03:47:48.447Z,78.19
2022-11-27T03:50:16.084Z,78.39
2022-11-27T03:52:43.642Z,78.17
2022-11-27T03:55:11.562Z,78.26
2022-11-27T03:57:40.315Z,77.97
2022-11-27T04:00:08.275Z,77.80
2022-11-27T04:02:35.880Z,77.24
2022-11-27T04:05:03.444Z,77.14
2022-11-27T04:07:31.075Z,77.46
2022-11-27T04:09:58.758Z,77.56
2022-11-27T04:12:26.346Z,77.36
2022-11-27T04:14:53.949Z,77.00
2022-11-27T04:17:21.551Z,76.92
2022-11-27T04:19:49.560Z,77.01
2022-11-27T04:22:17.135Z,76.59
2022-11-27T04:24:44.720Z,77.10
2022-11-27T04:27:12.272Z,76.79
2022-11-27T04:29:39.816Z,76.70
2022-11-27T04:32:07.765Z,76.63
2022-11-27T04:34:35.907Z,76.74
2022-11-27T04:37:03.494Z,76.87
2022-11-27T04:39:31.141Z,76.71
2022-11-27T04:41:58.689Z,76.92
2022-11-27T04:44:27.026Z,76.58
2022-11-27T04:46:55.185Z,76.88
2022-11-27T04:49:22.804Z,77.17
2022-11-27T04:51:50.366Z,76.41
2022-11-27T04:54:18.019Z,76.86
2022-11-27T04:56:45.930Z,77.28
2022-11-27T04:59:13.497Z,76.58
2022-11-27T05:01:41.088Z,76.92
2022-11-27T05:04:08.660Z,76.80
2022-11-27T05:06:36.578Z,76.31
2022-11-27T05:09:04.546Z,76.55
2022-11-27T05:11:33.879Z,76.80
2022-11-27T05:14:17.093Z,76.50
2022-11-27T05:16:44.641Z,76.04
2022-11-27T05:19:12.246Z,75.90
2022-11-27T05:21:39.983Z,75.88
2022-11-27T05:24:07.547Z,76.17
2022-11-27T05:26:35.114Z,76.61
2022-11-27T05:29:02.719Z,76.45
2022-11-27T05:31:30.725Z,76.11
2022-11-27T05:33:58.945Z,76.21
2022-11-27T05:36:26.550Z,76.50
2022-11-27T05:38:54.126Z,76.55
2022-11-27T05:41:21.702Z,75.94
2022-11-27T05:43:49.657Z,76.28
2022-11-27T05:46:17.279Z,76.13
2022-11-27T05:48:45.241Z,76.03
2022-11-27T05:51:12.846Z,75.44
2022-11-27T05:53:40.449Z,75.21
2022-11-27T05:56:08.359Z,75.04
2022-11-27T05:58:35.990Z,75.33
2022-11-27T06:01:03.582Z,74.63
2022-11-27T06:03:31.214Z,74.38
2022-11-27T06:05:58.826Z,74.38
2022-11-27T06:08:26.776Z,74.70
2022-11-27T06:10:54.641Z,73.99
2022-11-27T06:13:22.231Z,74.07
2022-11-27T06:15:49.850Z,73.93
2022-11-27T06:18:17.586Z,74.06
2022-11-27T06:20:50.208Z,74.18
2022-11-27T06:23:22.457Z,73.92
2022-11-27T06:25:50.084Z,73.87
2022-11-27T06:28:17.659Z,73.96
2022-11-27T06:30:45.627Z,73.93
2022-11-27T06:33:13.774Z,73.92
2022-11-27T06:35:44.700Z,73.94
2022-11-27T06:38:12.261Z,73.91
2022-11-27T06:40:39.886Z,73.68
2022-11-27T06:43:07.718Z,74.00
2022-11-27T06:45:35.424Z,74.23
2022-11-27T06:48:03.138Z,74.20
2022-11-27T06:50:30.751Z,74.19
2022-11-27T06:52:58.336Z,73.92
2022-11-27T06:55:26.706Z,73.98
2022-11-27T06:57:54.271Z,73.42
2022-11-27T07:00:24.220Z,73.53
2022-11-27T07:02:53.189Z,74.11
2022-11-27T07:05:20.753Z,73.79
2022-11-27T10:46:15.600Z,64.51
2022-11-27T10:48:43.361Z,65.10
2022-11-27T10:51:11.088Z,64.64
2022-11-27T10:53:39.056Z,64.84
2022-11-27T10:56:06.727Z,64.82
2022-11-27T10:58:35.456Z,64.52
2022-11-27T11:01:03.499Z,64.14
2022-11-27T11:03:31.415Z,63.60
2022-11-27T11:08:48.019Z,63.23
2022-11-27T11:11:15.940Z,63.25
2022-11-27T11:13:43.900Z,63.00
2022-11-27T11:16:14.664Z,62.71
2022-11-27T11:18:42.877Z,63.02
2022-11-27T11:21:12.442Z,63.06
2022-11-27T11:23:40.332Z,62.66
2022-11-27T11:26:08.401Z,62.95
2022-11-27T11:28:39.495Z,62.76
2022-11-27T11:31:07.600Z,62.73
2022-11-27T11:33:35.859Z,62.68
2022-11-27T11:36:03.756Z,62.73
2022-11-27T11:38:31.711Z,63.22
2022-11-27T11:40:59.580Z,62.48
2022-11-27T11:43:27.388Z,62.56
2022-11-27T11:45:57.020Z,62.63
2022-11-27T11:48:24.976Z,62.78
2022-11-27T11:50:52.933Z,62.32
2022-11-27T11:53:20.894Z,62.21
2022-11-27T11:55:48.789Z,62.37
2022-11-27T11:58:17.604Z,62.20
2022-11-27T12:01:11.408Z,61.50
2022-11-27T12:03:33.536Z,61.88
2022-11-27T12:06:01.431Z,61.80
2022-11-27T12:08:32.930Z,61.84
2022-11-27T12:11:00.804Z,61.57
2022-11-27T12:13:32.954Z,61.42
2022-11-27T12:16:01.244Z,60.77
2022-11-27T12:18:29.184Z,61.20
2022-11-27T12:20:58.895Z,60.51
2022-11-27T12:23:28.588Z,61.00
2022-11-27T12:25:56.649Z,60.59
2022-11-27T12:28:24.549Z,59.86
2022-11-27T12:30:52.332Z,59.56
2022-11-27T12:33:21.766Z,60.10
2022-11-27T12:35:49.639Z,59.56
2022-11-27T12:38:17.535Z,59.83
2022-11-27T12:40:45.758Z,59.16
2022-11-27T12:43:13.587Z,59.38
2022-11-27T12:45:41.690Z,58.97
2022-11-27T12:48:09.833Z,59.69
2022-11-27T12:50:37.997Z,59.76
2022-11-27T12:53:05.869Z,59.37
2022-11-27T12:55:33.799Z,58.90
2022-11-27T12:58:04.064Z,58.91
2022-11-27T13:00:31.949Z,58.10
2022-11-27T13:03:00.253Z,58.75
2022-11-27T13:05:28.418Z,58.99
2022-11-27T13:07:56.346Z,58.69
2022-11-27T13:10:24.837Z,58.35
2022-11-27T13:12:53.118Z,58.90
2022-11-27T13:15:20.818Z,59.43
2022-11-27T13:17:48.856Z,59.32
2022-11-27T13:20:16.796Z,59.17
2022-11-27T13:22:46.103Z,59.21
2022-11-27T13:25:14.636Z,59.24
2022-11-27T13:27:42.501Z,58.84
2022-11-27T13:30:10.306Z,59.61
2022-11-27T13:32:38.317Z,59.69
2022-11-27T13:35:06.920Z,59.42
2022-11-27T13:37:34.830Z,60.25
2022-11-27T13:40:03.172Z,59.51
2022-11-27T13:42:31.163Z,59.55
2022-11-27T13:44:59.065Z,59.43
2022-11-27T13:47:29.250Z,59.72
2022-11-27T13:49:57.079Z,60.24
2022-11-27T13:52:24.943Z,60.33
2022-11-27T13:54:52.941Z,60.08
2022-11-27T13:57:21.431Z,60.03
2022-11-27T13:59:51.282Z,60.13
2022-11-27T14:02:19.435Z,60.18
2022-11-27T14:04:50.555Z,60.37
2022-11-27T14:07:20.883Z,60.11
2022-11-27T14:09:48.722Z,59.76
2022-11-27T14:12:17.334Z,59.97
2022-11-27T14:14:45.560Z,60.11
2022-11-27T14:17:13.490Z,59.75
2022-11-27T14:19:41.419Z,59.95
2022-11-27T14:22:09.413Z,59.78
2022-11-27T14:24:41.737Z,60.60
2022-11-27T14:27:09.980Z,59.92
2022-11-27T14:29:37.827Z,60.24
2022-11-27T14:32:05.770Z,60.19
2022-11-27T14:34:33.754Z,60.31
2022-11-27T14:37:02.106Z,60.73
2022-11-27T14:39:30.182Z,60.83
2022-11-27T14:41:58.151Z,60.61
2022-11-27T14:44:25.910Z,61.15
2022-11-27T14:46:53.906Z,61.30
2022-11-27T14:49:22.282Z,60.84
2022-11-27T14:51:50.941Z,60.89
2022-11-27T14:54:18.739Z,61.27
2022-11-27T14:56:46.698Z,61.21
2022-11-27T14:59:14.593Z,61.13
2022-11-27T15:01:43.281Z,61.53
2022-11-27T15:04:11.208Z,61.41
2022-11-27T15:06:39.030Z,61.42
2022-11-27T15:09:30.759Z,61.45
2022-11-27T15:11:56.980Z,61.49
2022-11-27T15:14:25.039Z,61.28
2022-11-27T15:16:53.325Z,61.51
2022-11-27T15:19:21.394Z,61.11
2022-11-27T15:21:49.583Z,60.64
2022-11-27T15:24:18.286Z,61.59
2022-11-27T15:26:46.482Z,61.35
2022-11-27T15:29:14.261Z,60.77
2022-11-27T15:31:42.255Z,60.80
2022-11-27T15:34:10.200Z,60.75
2022-11-27T15:36:39.792Z,60.93
2022-11-27T15:39:07.646Z,61.19
2022-11-27T15:41:39.500Z,60.97
2022-11-27T15:44:10.270Z,61.31
2022-11-27T15:46:38.270Z,61.30
2022-11-27T15:49:06.790Z,60.84
2022-11-27T15:51:34.750Z,61.13
2022-11-27T15:54:02.645Z,60.57
2022-11-27T15:56:30.562Z,61.38
2022-11-27T15:58:58.501Z,61.90
2022-11-27T16:01:26.497Z,61.44
2022-11-27T16:03:54.700Z,61.94
2022-11-27T16:06:23.731Z,62.30
2022-11-27T16:08:51.680Z,61.88
2022-11-27T16:11:19.959Z,62.50
2022-11-27T16:13:48.169Z,62.48
2022-11-27T16:16:16.320Z,62.48
2022-11-27T16:18:44.330Z,62.50
2022-11-27T16:21:12.303Z,63.00
2022-11-27T16:23:41.339Z,63.43
2022-11-27T16:26:09.764Z,63.21
2022-11-27T16:28:37.606Z,63.49
2022-11-27T16:31:05.633Z,63.31
2022-11-27T16:33:33.400Z,63.26
2022-11-27T16:36:02.789Z,63.63
2022-11-27T16:38:30.984Z,63.55
2022-11-27T16:40:58.768Z,63.50
2022-11-27T16:43:26.529Z,63.60
2022-11-27T16:45:54.576Z,63.60
2022-11-27T16:48:23.502Z,63.45
2022-11-27T16:50:51.696Z,63.12
2022-11-27T16:53:19.590Z,63.57
2022-11-27T16:55:47.441Z,63.59
2022-11-27T16:58:15.309Z,63.65
2022-11-27T17:00:44.095Z,63.80
2022-11-27T17:03:12.077Z,63.72
2022-11-27T17:05:39.899Z,64.14
2022-11-27T17:08:08.169Z,63.93
2022-11-27T17:10:36.135Z,64.29
2022-11-27T17:13:04.035Z,64.11
2022-11-27T17:15:36.375Z,64.45
2022-11-27T17:18:08.117Z,64.07
2022-11-27T17:20:36.030Z,64.23
2022-11-27T17:23:03.885Z,64.36
2022-11-27T17:25:33.240Z,64.40
2022-11-27T17:28:01.159Z,64.38
2022-11-27T17:30:28.957Z,64.47
2022-11-27T17:32:58.287Z,64.54
2022-11-27T17:35:26.271Z,64.18
2022-11-27T17:37:54.494Z,64.70
2022-11-27T17:40:22.379Z,64.98
2022-11-27T17:42:50.428Z,64.61
2022-11-27T17:45:18.314Z,64.95
2022-11-27T17:47:46.173Z,65.17
2022-11-27T17:50:17.712Z,65.14
2022-11-27T17:52:45.614Z,65.30
2022-11-27T17:55:13.404Z,65.54
2022-11-27T17:57:41.503Z,65.57
2022-11-27T18:00:09.378Z,65.25
2022-11-27T18:02:37.740Z,65.63
2022-11-27T18:05:05.834Z,65.43
2022-11-27T18:07:33.733Z,65.65
2022-11-27T18:10:01.647Z,65.70
2022-11-27T18:12:29.859Z,66.04
2022-11-27T18:15:01.256Z,65.65
2022-11-27T18:17:29.386Z,65.65
2022-11-27T18:19:59.294Z,65.97
2022-11-27T18:22:27.068Z,65.94
2022-11-27T18:24:54.878Z,65.75
2022-11-27T18:27:23.540Z,65.99
2022-11-27T18:29:51.474Z,65.48
2022-11-27T18:32:19.462Z,65.64
2022-11-27T18:34:47.766Z,65.14
2022-11-27T18:37:15.517Z,65.69
2022-11-27T18:39:46.011Z,65.95
2022-11-27T18:42:14.015Z,65.83
2022-11-27T18:44:44.860Z,65.71
2022-11-27T18:47:13.274Z,65.60
2022-11-27T18:49:41.409Z,65.51
2022-11-27T18:52:11.129Z,65.45
2022-11-27T18:54:39.013Z,65.47
2022-11-27T18:57:07.424Z,65.73
2022-11-27T18:59:35.374Z,65.08
2022-11-27T19:02:03.334Z,65.50
2022-11-27T19:04:33.196Z,65.65
2022-11-27T19:07:01.058Z,65.13
2022-11-27T19:09:29.075Z,65.30
2022-11-27T19:11:57.179Z,65.35
2022-11-27T19:14:25.089Z,65.27
2022-11-27T19:16:53.566Z,65.71
2022-11-27T19:22:11.148Z,65.99
2022-11-27T19:24:39.086Z,65.50
2022-11-27T19:27:09.063Z,65.26
2022-11-27T19:29:36.852Z,65.40
2022-11-27T19:32:04.881Z,65.69
2022-11-27T19:34:32.775Z,65.79
2022-11-27T19:37:00.653Z,66.09
2022-11-27T19:39:29.724Z,66.11
2022-11-27T19:41:58.641Z,66.30
2022-11-27T19:44:26.473Z,66.19
2022-11-27T19:46:54.298Z,66.34
2022-11-27T19:49:22.088Z,66.48
2022-11-27T19:51:51.354Z,66.63
2022-11-27T19:54:20.378Z,66.65
2022-11-27T19:56:48.262Z,67.13
2022-11-27T19:59:16.197Z,67.05
2022-11-27T20:01:44.755Z,67.15
2022-11-27T20:04:16.306Z,67.34
2022-11-27T20:06:44.239Z,67.13
2022-11-27T20:09:14.221Z,67.48
2022-11-27T20:11:42.022Z,67.33
2022-11-27T20:14:09.884Z,67.44
2022-11-27T20:16:38.511Z,67.18
2022-11-27T20:19:06.520Z,67.40
2022-11-27T20:21:34.454Z,67.65
2022-11-27T20:24:02.645Z,67.65
2022-11-27T20:26:30.864Z,67.33
2022-11-27T20:28:59.110Z,67.48
2022-11-27T20:31:27.037Z,66.98
2022-11-27T20:33:54.985Z,67.21
2022-11-27T20:36:22.841Z,67.13
2022-11-27T20:38:50.746Z,67.42
2022-11-27T20:41:20.097Z,67.46
2022-11-27T20:43:47.896Z,67.39
2022-11-27T20:46:16.020Z,67.07
2022-11-27T20:48:43.859Z,66.71
2022-11-27T20:51:11.595Z,66.69
2022-11-27T20:53:41.376Z,66.69
2022-11-27T20:56:09.213Z,66.68
2022-11-27T20:58:37.033Z,66.72
2022-11-27T21:01:05.148Z,67.16
2022-11-27T21:03:32.961Z,67.01
2022-11-27T21:06:01.958Z,66.81
2022-11-27T21:08:31.179Z,66.71
2022-11-27T21:10:59.020Z,67.05
2022-11-27T21:13:26.897Z,67.26
2022-11-27T21:15:54.929Z,66.91
2022-11-27T21:18:24.595Z,67.08
2022-11-27T21:20:52.569Z,66.69
2022-11-27T21:23:21.080Z,66.25
2022-11-27T21:25:48.993Z,66.76
2022-11-27T21:28:16.851Z,66.74
2022-11-27T21:30:49.356Z,66.97
2022-11-27T21:33:17.263Z,66.42
2022-11-27T21:35:45.012Z,66.40
2022-11-27T21:38:12.923Z,66.47
2022-11-27T21:40:40.697Z,66.20
2022-11-27T21:43:08.980Z,66.54
2022-11-27T21:45:37.037Z,66.57
2022-11-27T21:48:05.396Z,66.43
2022-11-27T21:50:34.759Z,66.47
2022-11-27T21:53:02.979Z,65.96
2022-11-27T21:55:33.119Z,66.21
2022-11-27T21:58:00.931Z,66.03
2022-11-27T22:00:28.980Z,66.25
2022-11-27T22:02:56.972Z,66.05
2022-11-27T22:05:24.841Z,65.58
2022-11-27T22:07:53.385Z,65.30
2022-11-27T22:10:21.173Z,65.75
2022-11-27T22:12:48.948Z,65.98
2022-11-27T22:15:16.882Z,65.88
2022-11-27T22:17:44.638Z,65.80
2022-11-27T22:20:12.565Z,65.62
2022-11-27T22:22:40.430Z,65.69
2022-11-27T22:25:08.248Z,65.97
2022-11-27T22:27:36.003Z,66.17
2022-11-27T22:30:03.993Z,65.75
2022-11-27T22:32:32.296Z,66.22
2022-11-27T22:35:00.404Z,65.95
2022-11-27T22:37:28.216Z,65.60
2022-11-27T22:39:56.158Z,65.74
2022-11-27T22:42:23.871Z,65.96
2022-11-27T22:44:54.032Z,65.89
2022-11-27T22:47:21.800Z,66.08
2022-11-27T22:49:49.655Z,66.31
2022-11-27T22:52:17.498Z,66.00
2022-11-27T22:54:45.274Z,66.11
2022-11-27T22:57:16.682Z,66.34
2022-11-27T22:59:44.455Z,65.81
2022-11-27T23:02:12.379Z,65.86
2022-11-27T23:04:40.365Z,65.83
2022-11-27T23:07:08.485Z,65.88
2022-11-27T23:09:36.745Z,65.40
2022-11-27T23:12:04.462Z,66.01
2022-11-27T23:14:32.230Z,65.86
2022-11-27T23:16:59.932Z,66.11
2022-11-27T23:19:27.996Z,66.37
2022-11-27T23:21:57.597Z,65.82
2022-11-27T23:24:25.384Z,66.03
2022-11-27T23:26:53.062Z,66.27
2022-11-27T23:29:20.864Z,66.95
2022-11-27T23:31:48.606Z,66.87
2022-11-27T23:34:17.638Z,66.86
2022-11-27T23:36:45.338Z,67.15
2022-11-27T23:39:13.043Z,67.51
2022-11-27T23:41:41.109Z,67.71
2022-11-27T23:44:08.759Z,67.46
2022-11-27T23:46:36.720Z,67.35
2022-11-27T23:49:04.420Z,67.61
2022-11-27T23:51:32.160Z,67.74
2022-11-27T23:53:59.829Z,67.43
2022-11-27T23:56:27.410Z,67.44
2022-11-27T23:58:56.351Z,67.55
